sensor_id;sensor_type;location;lat;lon;timestamp;temperature;humidity
26479;DHT22;14163;-26.142;27.992;2024-01-11T00:01:45;24.00;99.90
26479;DHT22;14163;-26.142;27.992;2024-01-11T00:04:17;23.90;99.90
26479;DHT22;14163;-26.142;27.992;2024-01-11T00:06:46;24.00;99.90
26479;DHT22;14163;-26.142;27.992;2024-01-11T00:09:15;24.00;99.90
26479;DHT22;14163;-26.142;27.992;2024-01-11T00:11:43;24.10;99.90
26479;DHT22;14163;-26.142;27.992;2024-01-11T00:14:12;24.00;99.90
26479;DHT22;14163;-26.142;27.992;2024-01-11T00:16:42;24.00;99.90
26479;DHT22;14163;-26.142;27.992;2024-01-11T00:19:10;24.00;99.90
26479;DHT22;14163;-26.142;27.992;2024-01-11T00:21:41;24.00;99.90
26479;DHT22;14163;-26.142;27.992;2024-01-11T00:24:10;24.00;99.90
26479;DHT22;14163;-26.142;27.992;2024-01-11T00:26:39;24.00;99.90
26479;DHT22;14163;-26.142;27.992;2024-01-11T00:29:08;24.00;99.90
26479;DHT22;14163;-26.142;27.992;2024-01-11T00:31:37;24.00;99.90
26479;DHT22;14163;-26.142;27.992;2024-01-11T00:34:06;24.00;99.90
26479;DHT22;14163;-26.142;27.992;2024-01-11T00:36:35;24.00;99.90
26479;DHT22;14163;-26.142;27.992;2024-01-11T00:39:06;24.00;99.90
26479;DHT22;14163;-26.142;27.992;2024-01-11T00:41:35;24.00;99.90
26479;DHT22;14163;-26.142;27.992;2024-01-11T00:44:04;24.00;99.90
26479;DHT22;14163;-26.142;27.992;2024-01-11T00:46:34;24.00;99.90
26479;DHT22;14163;-26.142;27.992;2024-01-11T00:49:04;24.00;99.90
26479;DHT22;14163;-26.142;27.992;2024-01-11T00:51:33;23.90;99.90
26479;DHT22;14163;-26.142;27.992;2024-01-11T00:54:02;23.90;99.90
26479;DHT22;14163;-26.142;27.992;2024-01-11T00:56:33;23.90;99.90
26479;DHT22;14163;-26.142;27.992;2024-01-11T00:59:02;23.90;99.90
26479;DHT22;14163;-26.142;27.992;2024-01-11T01:01:32;23.90;99.90
26479;DHT22;14163;-26.142;27.992;2024-01-11T01:04:00;23.90;99.90
26479;DHT22;14163;-26.142;27.992;2024-01-11T01:06:29;23.90;99.90
26479;DHT22;14163;-26.142;27.992;2024-01-11T01:08:58;23.90;99.90
26479;DHT22;14163;-26.142;27.992;2024-01-11T01:11:27;23.80;99.90
26479;DHT22;14163;-26.142;27.992;2024-01-11T01:13:57;23.70;99.90
26479;DHT22;14163;-26.142;27.992;2024-01-11T01:16:26;23.80;99.90
26479;DHT22;14163;-26.142;27.992;2024-01-11T01:18:55;23.80;99.90
26479;DHT22;14163;-26.142;27.992;2024-01-11T01:21:24;23.80;99.90
26479;DHT22;14163;-26.142;27.992;2024-01-11T01:23:53;23.80;99.90
26479;DHT22;14163;-26.142;27.992;2024-01-11T01:26:22;23.80;99.90
26479;DHT22;14163;-26.142;27.992;2024-01-11T01:28:50;23.90;99.90
26479;DHT22;14163;-26.142;27.992;2024-01-11T01:31:21;23.80;99.90
26479;DHT22;14163;-26.142;27.992;2024-01-11T01:33:50;23.80;99.90
26479;DHT22;14163;-26.142;27.992;2024-01-11T01:36:19;23.80;99.90
26479;DHT22;14163;-26.142;27.992;2024-01-11T01:38:48;23.80;99.90
26479;DHT22;14163;-26.142;27.992;2024-01-11T01:41:17;23.80;99.90
26479;DHT22;14163;-26.142;27.992;2024-01-11T01:43:46;23.80;99.90
26479;DHT22;14163;-26.142;27.992;2024-01-11T01:46:21;23.80;99.90
26479;DHT22;14163;-26.142;27.992;2024-01-11T01:48:52;23.80;99.90
26479;DHT22;14163;-26.142;27.992;2024-01-11T01:51:24;23.90;99.90
26479;DHT22;14163;-26.142;27.992;2024-01-11T01:53:57;23.90;99.90
26479;DHT22;14163;-26.142;27.992;2024-01-11T01:56:26;23.90;99.90
26479;DHT22;14163;-26.142;27.992;2024-01-11T01:58:56;23.90;99.90
26479;DHT22;14163;-26.142;27.992;2024-01-11T02:01:26;23.90;99.90
26479;DHT22;14163;-26.142;27.992;2024-01-11T02:03:55;23.90;99.90
26479;DHT22;14163;-26.142;27.992;2024-01-11T02:06:26;23.90;99.90
26479;DHT22;14163;-26.142;27.992;2024-01-11T02:08:57;23.90;99.90
26479;DHT22;14163;-26.142;27.992;2024-01-11T02:11:27;23.80;99.90
26479;DHT22;14163;-26.142;27.992;2024-01-11T02:13:56;23.80;99.90
26479;DHT22;14163;-26.142;27.992;2024-01-11T02:16:27;23.80;99.90
26479;DHT22;14163;-26.142;27.992;2024-01-11T02:18:56;23.90;99.90
26479;DHT22;14163;-26.142;27.992;2024-01-11T02:21:26;23.80;99.90
26479;DHT22;14163;-26.142;27.992;2024-01-11T02:24:05;23.90;99.90
26479;DHT22;14163;-26.142;27.992;2024-01-11T02:26:34;23.90;99.90
26479;DHT22;14163;-26.142;27.992;2024-01-11T02:29:03;23.90;99.90
26479;DHT22;14163;-26.142;27.992;2024-01-11T02:31:32;23.90;99.90
26479;DHT22;14163;-26.142;27.992;2024-01-11T02:34:01;23.90;99.90
26479;DHT22;14163;-26.142;27.992;2024-01-11T02:36:30;23.80;99.90
26479;DHT22;14163;-26.142;27.992;2024-01-11T02:39:01;23.80;99.90
26479;DHT22;14163;-26.142;27.992;2024-01-11T02:41:31;23.80;99.90
26479;DHT22;14163;-26.142;27.992;2024-01-11T02:44:01;23.70;99.90
26479;DHT22;14163;-26.142;27.992;2024-01-11T02:46:30;23.70;99.90
26479;DHT22;14163;-26.142;27.992;2024-01-11T02:48:59;23.60;99.90
26479;DHT22;14163;-26.142;27.992;2024-01-11T02:51:28;23.50;99.90
26479;DHT22;14163;-26.142;27.992;2024-01-11T02:53:59;23.50;99.90
26479;DHT22;14163;-26.142;27.992;2024-01-11T02:56:28;23.30;99.90
26479;DHT22;14163;-26.142;27.992;2024-01-11T02:58:57;23.30;99.90
26479;DHT22;14163;-26.142;27.992;2024-01-11T03:01:25;23.20;99.90
26479;DHT22;14163;-26.142;27.992;2024-01-11T03:03:55;23.20;99.90
26479;DHT22;14163;-26.142;27.992;2024-01-11T03:06:25;23.20;99.90
26479;DHT22;14163;-26.142;27.992;2024-01-11T03:08:54;23.10;99.90
26479;DHT22;14163;-26.142;27.992;2024-01-11T03:11:24;23.10;99.90
26479;DHT22;14163;-26.142;27.992;2024-01-11T03:13:53;23.10;99.90
26479;DHT22;14163;-26.142;27.992;2024-01-11T03:16:22;23.10;99.90
26479;DHT22;14163;-26.142;27.992;2024-01-11T03:18:51;23.10;99.90
26479;DHT22;14163;-26.142;27.992;2024-01-11T03:21:20;23.20;99.90
26479;DHT22;14163;-26.142;27.992;2024-01-11T03:23:49;23.10;99.90
26479;DHT22;14163;-26.142;27.992;2024-01-11T03:26:18;23.10;99.90
26479;DHT22;14163;-26.142;27.992;2024-01-11T03:28:48;23.10;99.90
26479;DHT22;14163;-26.142;27.992;2024-01-11T03:31:17;23.10;99.90
26479;DHT22;14163;-26.142;27.992;2024-01-11T03:33:46;23.20;99.90
26479;DHT22;14163;-26.142;27.992;2024-01-11T03:36:15;23.20;99.90
26479;DHT22;14163;-26.142;27.992;2024-01-11T03:38:44;23.10;99.90
26479;DHT22;14163;-26.142;27.992;2024-01-11T03:41:13;23.10;99.90
26479;DHT22;14163;-26.142;27.992;2024-01-11T03:43:42;23.10;99.90
26479;DHT22;14163;-26.142;27.992;2024-01-11T03:46:12;23.10;99.90
26479;DHT22;14163;-26.142;27.992;2024-01-11T03:48:41;23.10;99.90
26479;DHT22;14163;-26.142;27.992;2024-01-11T03:51:10;23.10;99.90
26479;DHT22;14163;-26.142;27.992;2024-01-11T03:53:39;23.10;99.90
26479;DHT22;14163;-26.142;27.992;2024-01-11T03:56:08;23.10;99.90
26479;DHT22;14163;-26.142;27.992;2024-01-11T03:58:37;23.10;99.90
26479;DHT22;14163;-26.142;27.992;2024-01-11T04:01:08;23.00;99.90
26479;DHT22;14163;-26.142;27.992;2024-01-11T04:03:39;23.00;99.90
26479;DHT22;14163;-26.142;27.992;2024-01-11T04:06:18;22.90;99.90
26479;DHT22;14163;-26.142;27.992;2024-01-11T04:08:47;22.90;99.90
26479;DHT22;14163;-26.142;27.992;2024-01-11T04:11:16;22.90;99.90
26479;DHT22;14163;-26.142;27.992;2024-01-11T04:13:48;22.90;99.90
26479;DHT22;14163;-26.142;27.992;2024-01-11T04:16:17;22.80;99.90
26479;DHT22;14163;-26.142;27.992;2024-01-11T04:18:48;22.80;99.90
26479;DHT22;14163;-26.142;27.992;2024-01-11T04:21:24;22.80;99.90
26479;DHT22;14163;-26.142;27.992;2024-01-11T04:23:55;22.80;99.90
26479;DHT22;14163;-26.142;27.992;2024-01-11T04:26:24;22.70;99.90
26479;DHT22;14163;-26.142;27.992;2024-01-11T04:28:53;22.70;99.90
26479;DHT22;14163;-26.142;27.992;2024-01-11T04:31:24;22.70;99.90
26479;DHT22;14163;-26.142;27.992;2024-01-11T04:33:55;22.70;99.90
26479;DHT22;14163;-26.142;27.992;2024-01-11T04:36:24;22.70;99.90
26479;DHT22;14163;-26.142;27.992;2024-01-11T04:38:53;22.70;99.90
26479;DHT22;14163;-26.142;27.992;2024-01-11T04:41:22;22.60;99.90
26479;DHT22;14163;-26.142;27.992;2024-01-11T04:43:51;22.70;99.90
26479;DHT22;14163;-26.142;27.992;2024-01-11T04:46:21;22.70;99.90
26479;DHT22;14163;-26.142;27.992;2024-01-11T04:48:51;22.70;99.90
26479;DHT22;14163;-26.142;27.992;2024-01-11T04:51:22;22.80;99.90
26479;DHT22;14163;-26.142;27.992;2024-01-11T04:53:51;22.80;99.90
26479;DHT22;14163;-26.142;27.992;2024-01-11T04:56:20;22.80;99.90
26479;DHT22;14163;-26.142;27.992;2024-01-11T04:58:49;22.90;99.90
26479;DHT22;14163;-26.142;27.992;2024-01-11T05:01:18;22.90;99.90
26479;DHT22;14163;-26.142;27.992;2024-01-11T05:03:47;22.90;99.90
26479;DHT22;14163;-26.142;27.992;2024-01-11T05:06:16;23.00;99.90
26479;DHT22;14163;-26.142;27.992;2024-01-11T05:08:48;23.00;99.90
26479;DHT22;14163;-26.142;27.992;2024-01-11T05:11:18;23.10;99.90
26479;DHT22;14163;-26.142;27.992;2024-01-11T05:13:48;23.10;99.90
26479;DHT22;14163;-26.142;27.992;2024-01-11T05:16:19;23.10;99.90
26479;DHT22;14163;-26.142;27.992;2024-01-11T05:18:49;23.10;99.90
26479;DHT22;14163;-26.142;27.992;2024-01-11T05:21:18;23.20;99.90
26479;DHT22;14163;-26.142;27.992;2024-01-11T05:23:48;23.20;99.90
26479;DHT22;14163;-26.142;27.992;2024-01-11T05:26:18;23.20;99.90
26479;DHT22;14163;-26.142;27.992;2024-01-11T05:28:47;23.20;99.90
26479;DHT22;14163;-26.142;27.992;2024-01-11T05:31:16;23.30;99.90
26479;DHT22;14163;-26.142;27.992;2024-01-11T05:33:46;23.30;99.90
26479;DHT22;14163;-26.142;27.992;2024-01-11T05:36:15;23.30;99.90
26479;DHT22;14163;-26.142;27.992;2024-01-11T05:38:44;23.30;99.90
26479;DHT22;14163;-26.142;27.992;2024-01-11T05:41:15;23.30;99.90
26479;DHT22;14163;-26.142;27.992;2024-01-11T05:43:44;23.30;99.90
26479;DHT22;14163;-26.142;27.992;2024-01-11T05:46:13;23.30;99.90
26479;DHT22;14163;-26.142;27.992;2024-01-11T05:48:42;23.40;99.90
26479;DHT22;14163;-26.142;27.992;2024-01-11T05:51:11;23.40;99.90
26479;DHT22;14163;-26.142;27.992;2024-01-11T05:53:40;23.40;99.90
26479;DHT22;14163;-26.142;27.992;2024-01-11T05:56:10;23.40;99.90
26479;DHT22;14163;-26.142;27.992;2024-01-11T05:58:40;23.50;99.90
26479;DHT22;14163;-26.142;27.992;2024-01-11T06:01:09;23.50;99.90
26479;DHT22;14163;-26.142;27.992;2024-01-11T06:03:38;23.50;99.90
26479;DHT22;14163;-26.142;27.992;2024-01-11T06:06:07;23.50;99.90
26479;DHT22;14163;-26.142;27.992;2024-01-11T06:08:36;23.60;99.90
26479;DHT22;14163;-26.142;27.992;2024-01-11T06:11:05;23.70;99.90
26479;DHT22;14163;-26.142;27.992;2024-01-11T06:13:34;23.60;99.90
26479;DHT22;14163;-26.142;27.992;2024-01-11T06:16:05;23.60;99.90
26479;DHT22;14163;-26.142;27.992;2024-01-11T06:18:34;23.60;99.90
26479;DHT22;14163;-26.142;27.992;2024-01-11T06:21:03;23.40;99.90
26479;DHT22;14163;-26.142;27.992;2024-01-11T06:23:32;23.30;99.90
26479;DHT22;14163;-26.142;27.992;2024-01-11T06:26:01;23.30;99.90
26479;DHT22;14163;-26.142;27.992;2024-01-11T06:28:31;23.30;99.90
26479;DHT22;14163;-26.142;27.992;2024-01-11T06:31:00;23.30;99.90
26479;DHT22;14163;-26.142;27.992;2024-01-11T06:33:33;23.40;99.90
26479;DHT22;14163;-26.142;27.992;2024-01-11T06:36:05;23.30;99.90
26479;DHT22;14163;-26.142;27.992;2024-01-11T06:38:34;23.40;99.90
26479;DHT22;14163;-26.142;27.992;2024-01-11T06:41:03;23.40;99.90
26479;DHT22;14163;-26.142;27.992;2024-01-11T06:43:32;23.30;99.90
26479;DHT22;14163;-26.142;27.992;2024-01-11T06:46:03;23.20;99.90
26479;DHT22;14163;-26.142;27.992;2024-01-11T06:48:34;23.10;99.90
26479;DHT22;14163;-26.142;27.992;2024-01-11T06:51:03;23.00;99.90
26479;DHT22;14163;-26.142;27.992;2024-01-11T06:53:32;22.80;99.90
26479;DHT22;14163;-26.142;27.992;2024-01-11T06:56:01;22.70;99.90
26479;DHT22;14163;-26.142;27.992;2024-01-11T06:58:30;22.50;99.90
26479;DHT22;14163;-26.142;27.992;2024-01-11T07:00:59;22.50;99.90
26479;DHT22;14163;-26.142;27.992;2024-01-11T07:03:29;22.70;99.90
26479;DHT22;14163;-26.142;27.992;2024-01-11T07:06:00;22.80;99.90
26479;DHT22;14163;-26.142;27.992;2024-01-11T07:08:29;22.80;99.90
26479;DHT22;14163;-26.142;27.992;2024-01-11T07:11:00;22.80;99.90
26479;DHT22;14163;-26.142;27.992;2024-01-11T07:13:29;22.90;99.90
26479;DHT22;14163;-26.142;27.992;2024-01-11T07:15:58;22.80;99.90
26479;DHT22;14163;-26.142;27.992;2024-01-11T07:18:29;22.80;99.90
26479;DHT22;14163;-26.142;27.992;2024-01-11T07:21:00;22.70;99.90
26479;DHT22;14163;-26.142;27.992;2024-01-11T07:23:29;22.50;99.90
26479;DHT22;14163;-26.142;27.992;2024-01-11T07:25:58;22.40;99.90
26479;DHT22;14163;-26.142;27.992;2024-01-11T07:28:27;22.50;99.90
26479;DHT22;14163;-26.142;27.992;2024-01-11T07:30:56;22.60;99.90
26479;DHT22;14163;-26.142;27.992;2024-01-11T07:33:25;22.60;99.90
26479;DHT22;14163;-26.142;27.992;2024-01-11T07:35:53;22.70;99.90
26479;DHT22;14163;-26.142;27.992;2024-01-11T07:38:24;22.70;99.90
26479;DHT22;14163;-26.142;27.992;2024-01-11T07:40:53;22.60;99.90
26479;DHT22;14163;-26.142;27.992;2024-01-11T07:43:22;22.70;99.90
26479;DHT22;14163;-26.142;27.992;2024-01-11T07:45:50;22.80;99.90
26479;DHT22;14163;-26.142;27.992;2024-01-11T07:48:19;22.80;99.90
26479;DHT22;14163;-26.142;27.992;2024-01-11T07:50:48;22.70;99.90
26479;DHT22;14163;-26.142;27.992;2024-01-11T07:53:17;22.70;99.90
26479;DHT22;14163;-26.142;27.992;2024-01-11T07:55:48;22.70;99.90
26479;DHT22;14163;-26.142;27.992;2024-01-11T07:58:17;22.80;99.90
26479;DHT22;14163;-26.142;27.992;2024-01-11T10:04:25;18.90;99.90
26479;DHT22;14163;-26.142;27.992;2024-01-11T10:06:54;19.10;99.90
26479;DHT22;14163;-26.142;27.992;2024-01-11T10:09:23;19.80;99.90
26479;DHT22;14163;-26.142;27.992;2024-01-11T10:11:53;20.60;99.90
26479;DHT22;14163;-26.142;27.992;2024-01-11T10:14:22;21.40;99.90
26479;DHT22;14163;-26.142;27.992;2024-01-11T10:16:54;22.00;99.90
26479;DHT22;14163;-26.142;27.992;2024-01-11T10:19:25;22.50;99.90
26479;DHT22;14163;-26.142;27.992;2024-01-11T10:21:54;23.00;99.90
26479;DHT22;14163;-26.142;27.992;2024-01-11T10:24:23;23.30;99.90
26479;DHT22;14163;-26.142;27.992;2024-01-11T10:26:55;23.60;99.90
26479;DHT22;14163;-26.142;27.992;2024-01-11T10:29:30;23.90;99.90
26479;DHT22;14163;-26.142;27.992;2024-01-11T10:31:59;24.20;99.90
26479;DHT22;14163;-26.142;27.992;2024-01-11T10:34:30;24.40;99.90
26479;DHT22;14163;-26.142;27.992;2024-01-11T10:36:59;24.60;99.90
26479;DHT22;14163;-26.142;27.992;2024-01-11T10:39:29;24.80;99.90
26479;DHT22;14163;-26.142;27.992;2024-01-11T10:42:05;24.90;99.90
26479;DHT22;14163;-26.142;27.992;2024-01-11T10:44:35;25.00;99.90
26479;DHT22;14163;-26.142;27.992;2024-01-11T10:47:04;24.90;99.90
26479;DHT22;14163;-26.142;27.992;2024-01-11T10:49:40;24.60;99.90
26479;DHT22;14163;-26.142;27.992;2024-01-11T10:52:12;24.50;99.90
26479;DHT22;14163;-26.142;27.992;2024-01-11T10:54:42;24.50;99.90
26479;DHT22;14163;-26.142;27.992;2024-01-11T10:57:12;24.30;99.90
26479;DHT22;14163;-26.142;27.992;2024-01-11T10:59:42;24.10;99.90
26479;DHT22;14163;-26.142;27.992;2024-01-11T11:02:12;24.10;99.90
26479;DHT22;14163;-26.142;27.992;2024-01-11T11:04:44;24.30;99.90
26479;DHT22;14163;-26.142;27.992;2024-01-11T11:07:16;24.60;99.90
26479;DHT22;14163;-26.142;27.992;2024-01-11T11:09:47;24.60;99.90
26479;DHT22;14163;-26.142;27.992;2024-01-11T11:12:19;24.50;99.90
26479;DHT22;14163;-26.142;27.992;2024-01-11T11:14:49;24.60;99.90
26479;DHT22;14163;-26.142;27.992;2024-01-11T11:17:19;24.90;99.90
26479;DHT22;14163;-26.142;27.992;2024-01-11T11:19:49;25.00;99.90
26479;DHT22;14163;-26.142;27.992;2024-01-11T11:22:20;25.10;99.90
26479;DHT22;14163;-26.142;27.992;2024-01-11T11:25:03;25.10;99.90
26479;DHT22;14163;-26.142;27.992;2024-01-11T11:27:33;25.10;99.90
26479;DHT22;14163;-26.142;27.992;2024-01-11T11:30:04;25.30;99.90
26479;DHT22;14163;-26.142;27.992;2024-01-11T11:32:36;25.40;99.90
26479;DHT22;14163;-26.142;27.992;2024-01-11T11:35:08;25.50;99.90
26479;DHT22;14163;-26.142;27.992;2024-01-11T11:37:37;25.50;99.90
26479;DHT22;14163;-26.142;27.992;2024-01-11T11:40:08;25.50;99.90
26479;DHT22;14163;-26.142;27.992;2024-01-11T11:42:37;25.40;99.90
26479;DHT22;14163;-26.142;27.992;2024-01-11T11:45:08;25.70;99.90
26479;DHT22;14163;-26.142;27.992;2024-01-11T11:47:38;25.80;99.90
26479;DHT22;14163;-26.142;27.992;2024-01-11T11:50:11;25.70;99.90
26479;DHT22;14163;-26.142;27.992;2024-01-11T11:52:41;25.60;99.90
26479;DHT22;14163;-26.142;27.992;2024-01-11T11:55:10;25.60;99.90
26479;DHT22;14163;-26.142;27.992;2024-01-11T11:57:43;25.90;99.90
26479;DHT22;14163;-26.142;27.992;2024-01-11T12:00:14;26.00;99.90
26479;DHT22;14163;-26.142;27.992;2024-01-11T12:02:44;25.80;99.90
26479;DHT22;14163;-26.142;27.992;2024-01-11T12:05:16;25.70;99.90
26479;DHT22;14163;-26.142;27.992;2024-01-11T12:07:45;25.80;99.90
26479;DHT22;14163;-26.142;27.992;2024-01-11T12:10:15;25.90;99.90
26479;DHT22;14163;-26.142;27.992;2024-01-11T12:12:44;26.10;99.90
26479;DHT22;14163;-26.142;27.992;2024-01-11T12:15:13;26.30;99.90
26479;DHT22;14163;-26.142;27.992;2024-01-11T12:17:42;26.60;99.90
26479;DHT22;14163;-26.142;27.992;2024-01-11T12:20:13;26.50;99.90
26479;DHT22;14163;-26.142;27.992;2024-01-11T12:22:43;26.40;99.90
26479;DHT22;14163;-26.142;27.992;2024-01-11T12:25:12;26.50;99.90
26479;DHT22;14163;-26.142;27.992;2024-01-11T12:27:42;26.40;99.90
26479;DHT22;14163;-26.142;27.992;2024-01-11T12:30:12;26.40;99.90
26479;DHT22;14163;-26.142;27.992;2024-01-11T12:32:43;26.40;99.90
26479;DHT22;14163;-26.142;27.992;2024-01-11T12:35:15;26.30;99.90
26479;DHT22;14163;-26.142;27.992;2024-01-11T12:37:53;26.50;99.90
26479;DHT22;14163;-26.142;27.992;2024-01-11T12:40:22;26.70;99.90
26479;DHT22;14163;-26.142;27.992;2024-01-11T12:42:51;26.80;99.90
26479;DHT22;14163;-26.142;27.992;2024-01-11T12:45:20;26.90;99.90
26479;DHT22;14163;-26.142;27.992;2024-01-11T12:47:49;27.10;99.90
26479;DHT22;14163;-26.142;27.992;2024-01-11T12:50:20;26.90;99.90
26479;DHT22;14163;-26.142;27.992;2024-01-11T12:53:04;27.00;99.90
26479;DHT22;14163;-26.142;27.992;2024-01-11T12:55:33;27.10;99.90
26479;DHT22;14163;-26.142;27.992;2024-01-11T12:58:06;27.10;99.90
26479;DHT22;14163;-26.142;27.992;2024-01-11T13:00:36;27.10;99.90
26479;DHT22;14163;-26.142;27.992;2024-01-11T13:03:06;27.20;99.90
26479;DHT22;14163;-26.142;27.992;2024-01-11T13:05:37;27.50;99.90
26479;DHT22;14163;-26.142;27.992;2024-01-11T13:08:08;27.40;99.90
26479;DHT22;14163;-26.142;27.992;2024-01-11T13:10:37;27.50;99.90
26479;DHT22;14163;-26.142;27.992;2024-01-11T13:13:06;27.70;99.90
26479;DHT22;14163;-26.142;27.992;2024-01-11T13:15:36;27.80;99.90
26479;DHT22;14163;-26.142;27.992;2024-01-11T13:18:05;27.80;99.90
26479;DHT22;14163;-26.142;27.992;2024-01-11T13:20:36;28.00;99.90
26479;DHT22;14163;-26.142;27.992;2024-01-11T13:23:15;27.90;99.90
26479;DHT22;14163;-26.142;27.992;2024-01-11T13:25:47;27.80;99.90
26479;DHT22;14163;-26.142;27.992;2024-01-11T13:28:16;27.70;99.90
26479;DHT22;14163;-26.142;27.992;2024-01-11T13:30:46;27.50;99.90
26479;DHT22;14163;-26.142;27.992;2024-01-11T13:33:15;27.50;99.90
26479;DHT22;14163;-26.142;27.992;2024-01-11T13:35:47;27.60;99.90
26479;DHT22;14163;-26.142;27.992;2024-01-11T13:38:16;27.60;99.90
26479;DHT22;14163;-26.142;27.992;2024-01-11T13:40:45;27.50;99.90
26479;DHT22;14163;-26.142;27.992;2024-01-11T13:43:14;27.40;99.90
26479;DHT22;14163;-26.142;27.992;2024-01-11T13:45:44;27.40;99.90
26479;DHT22;14163;-26.142;27.992;2024-01-11T13:48:12;27.30;99.90
26479;DHT22;14163;-26.142;27.992;2024-01-11T13:50:41;27.30;99.90
26479;DHT22;14163;-26.142;27.992;2024-01-11T13:53:12;27.40;99.90
26479;DHT22;14163;-26.142;27.992;2024-01-11T13:55:41;27.30;99.90
26479;DHT22;14163;-26.142;27.992;2024-01-11T13:58:10;27.30;99.90
26479;DHT22;14163;-26.142;27.992;2024-01-11T14:00:40;27.20;99.90
26479;DHT22;14163;-26.142;27.992;2024-01-11T14:03:09;27.20;99.90
26479;DHT22;14163;-26.142;27.992;2024-01-11T14:05:38;27.20;99.90
26479;DHT22;14163;-26.142;27.992;2024-01-11T14:08:08;27.20;99.90
26479;DHT22;14163;-26.142;27.992;2024-01-11T14:10:39;27.20;99.90
26479;DHT22;14163;-26.142;27.992;2024-01-11T14:13:08;27.20;99.90
26479;DHT22;14163;-26.142;27.992;2024-01-11T14:15:37;27.00;99.90
26479;DHT22;14163;-26.142;27.992;2024-01-11T14:18:07;26.80;99.90
26479;DHT22;14163;-26.142;27.992;2024-01-11T14:20:36;26.90;99.90
26479;DHT22;14163;-26.142;27.992;2024-01-11T14:23:05;27.00;99.90
26479;DHT22;14163;-26.142;27.992;2024-01-11T14:25:34;26.70;99.90
26479;DHT22;14163;-26.142;27.992;2024-01-11T14:28:05;26.80;99.90
26479;DHT22;14163;-26.142;27.992;2024-01-11T14:30:34;26.90;99.90
26479;DHT22;14163;-26.142;27.992;2024-01-11T14:33:04;26.80;99.90
26479;DHT22;14163;-26.142;27.992;2024-01-11T14:35:32;26.70;99.90
26479;DHT22;14163;-26.142;27.992;2024-01-11T14:38:01;26.60;99.90
26479;DHT22;14163;-26.142;27.992;2024-01-11T14:40:31;26.50;99.90
26479;DHT22;14163;-26.142;27.992;2024-01-11T14:42:59;26.50;99.90
26479;DHT22;14163;-26.142;27.992;2024-01-11T14:45:32;26.50;99.90
26479;DHT22;14163;-26.142;27.992;2024-01-11T14:48:01;26.40;99.90
26479;DHT22;14163;-26.142;27.992;2024-01-11T14:50:30;26.40;99.90
26479;DHT22;14163;-26.142;27.992;2024-01-11T14:52:59;26.50;99.90
26479;DHT22;14163;-26.142;27.992;2024-01-11T14:55:30;26.60;99.90
26479;DHT22;14163;-26.142;27.992;2024-01-11T14:57:59;26.50;99.90
26479;DHT22;14163;-26.142;27.992;2024-01-11T15:00:28;26.50;99.90
26479;DHT22;14163;-26.142;27.992;2024-01-11T15:02:58;26.50;99.90
26479;DHT22;14163;-26.142;27.992;2024-01-11T15:05:27;26.30;99.90
26479;DHT22;14163;-26.142;27.992;2024-01-11T15:07:56;26.30;99.90
26479;DHT22;14163;-26.142;27.992;2024-01-11T15:10:25;26.50;99.90
26479;DHT22;14163;-26.142;27.992;2024-01-11T15:12:54;26.60;99.90
26479;DHT22;14163;-26.142;27.992;2024-01-11T15:15:23;26.60;99.90
26479;DHT22;14163;-26.142;27.992;2024-01-11T15:17:52;26.60;99.90
26479;DHT22;14163;-26.142;27.992;2024-01-11T15:20:23;26.40;99.90
26479;DHT22;14163;-26.142;27.992;2024-01-11T15:22:52;26.30;99.90
26479;DHT22;14163;-26.142;27.992;2024-01-11T15:25:20;26.30;99.90
26479;DHT22;14163;-26.142;27.992;2024-01-11T15:27:50;26.20;99.90
26479;DHT22;14163;-26.142;27.992;2024-01-11T15:30:19;26.20;99.90
26479;DHT22;14163;-26.142;27.992;2024-01-11T15:32:49;26.20;99.90
26479;DHT22;14163;-26.142;27.992;2024-01-11T15:35:18;26.20;99.90
26479;DHT22;14163;-26.142;27.992;2024-01-11T15:37:49;26.20;99.90
26479;DHT22;14163;-26.142;27.992;2024-01-11T15:40:18;26.20;99.90
26479;DHT22;14163;-26.142;27.992;2024-01-11T15:42:47;26.00;99.90
26479;DHT22;14163;-26.142;27.992;2024-01-11T15:45:17;26.10;99.90
26479;DHT22;14163;-26.142;27.992;2024-01-11T15:47:47;26.10;99.90
26479;DHT22;14163;-26.142;27.992;2024-01-11T15:50:16;26.10;99.90
26479;DHT22;14163;-26.142;27.992;2024-01-11T15:52:45;26.10;99.90
26479;DHT22;14163;-26.142;27.992;2024-01-11T15:55:16;26.10;99.90
26479;DHT22;14163;-26.142;27.992;2024-01-11T15:57:47;26.30;99.90
26479;DHT22;14163;-26.142;27.992;2024-01-11T16:00:16;26.40;99.90
26479;DHT22;14163;-26.142;27.992;2024-01-11T16:02:46;26.40;99.90
26479;DHT22;14163;-26.142;27.992;2024-01-11T16:05:15;26.40;99.90
26479;DHT22;14163;-26.142;27.992;2024-01-11T16:07:44;26.20;99.90
26479;DHT22;14163;-26.142;27.992;2024-01-11T16:10:15;26.10;99.90
26479;DHT22;14163;-26.142;27.992;2024-01-11T16:12:44;26.10;99.90
26479;DHT22;14163;-26.142;27.992;2024-01-11T16:15:13;26.00;99.90
26479;DHT22;14163;-26.142;27.992;2024-01-11T16:17:42;25.90;99.90
26479;DHT22;14163;-26.142;27.992;2024-01-11T16:20:11;26.10;99.90
26479;DHT22;14163;-26.142;27.992;2024-01-11T16:22:40;26.10;99.90
26479;DHT22;14163;-26.142;27.992;2024-01-11T16:25:09;26.30;99.90
26479;DHT22;14163;-26.142;27.992;2024-01-11T16:27:40;26.10;99.90
26479;DHT22;14163;-26.142;27.992;2024-01-11T16:30:09;26.10;99.90
26479;DHT22;14163;-26.142;27.992;2024-01-11T16:32:39;26.20;99.90
26479;DHT22;14163;-26.142;27.992;2024-01-11T16:35:08;26.30;99.90
26479;DHT22;14163;-26.142;27.992;2024-01-11T16:37:37;26.30;99.90
26479;DHT22;14163;-26.142;27.992;2024-01-11T16:40:07;26.30;99.90
26479;DHT22;14163;-26.142;27.992;2024-01-11T16:42:39;26.30;99.90
26479;DHT22;14163;-26.142;27.992;2024-01-11T16:45:08;26.30;99.90
26479;DHT22;14163;-26.142;27.992;2024-01-11T16:47:38;26.30;99.90
26479;DHT22;14163;-26.142;27.992;2024-01-11T16:50:08;26.40;99.90
26479;DHT22;14163;-26.142;27.992;2024-01-11T16:52:37;26.40;99.90
26479;DHT22;14163;-26.142;27.992;2024-01-11T16:55:06;26.30;99.90
26479;DHT22;14163;-26.142;27.992;2024-01-11T16:57:35;26.30;99.90
26479;DHT22;14163;-26.142;27.992;2024-01-11T17:00:07;26.30;99.90
26479;DHT22;14163;-26.142;27.992;2024-01-11T17:02:36;26.40;99.90
26479;DHT22;14163;-26.142;27.992;2024-01-11T17:05:05;26.40;99.90
26479;DHT22;14163;-26.142;27.992;2024-01-11T17:07:34;26.50;99.90
26479;DHT22;14163;-26.142;27.992;2024-01-11T17:10:03;26.40;99.90
26479;DHT22;14163;-26.142;27.992;2024-01-11T17:12:32;26.40;99.90
26479;DHT22;14163;-26.142;27.992;2024-01-11T17:15:01;26.30;99.90
26479;DHT22;14163;-26.142;27.992;2024-01-11T17:17:32;26.20;99.90
26479;DHT22;14163;-26.142;27.992;2024-01-11T17:20:02;26.20;99.90
26479;DHT22;14163;-26.142;27.992;2024-01-11T17:22:31;26.10;99.90